sensor_id;sensor_type;location;lat;lon;timestamp;temperature;humidity
31729;DHT22;18309;43.658;1.312;2023-03-02T00:01:59;5.00;83.10
31729;DHT22;18309;43.658;1.312;2023-03-02T00:04:28;5.00;83.40
31729;DHT22;18309;43.658;1.312;2023-03-02T00:06:59;4.90;83.70
31729;DHT22;18309;43.658;1.312;2023-03-02T00:09:27;4.90;84.00
31729;DHT22;18309;43.658;1.312;2023-03-02T00:11:53;4.90;84.40
31729;DHT22;18309;43.658;1.312;2023-03-02T00:14:18;4.90;84.50
31729;DHT22;18309;43.658;1.312;2023-03-02T00:16:44;4.90;84.70
31729;DHT22;18309;43.658;1.312;2023-03-02T00:19:10;4.90;85.00
31729;DHT22;18309;43.658;1.312;2023-03-02T00:21:38;4.90;85.30
31729;DHT22;18309;43.658;1.312;2023-03-02T00:24:05;4.90;85.40
31729;DHT22;18309;43.658;1.312;2023-03-02T00:26:33;4.80;85.70
31729;DHT22;18309;43.658;1.312;2023-03-02T00:28:59;4.80;86.00
31729;DHT22;18309;43.658;1.312;2023-03-02T00:31:25;4.80;86.30
31729;DHT22;18309;43.658;1.312;2023-03-02T00:33:52;4.80;86.50
31729;DHT22;18309;43.658;1.312;2023-03-02T00:36:19;4.80;86.80
31729;DHT22;18309;43.658;1.312;2023-03-02T00:38:45;4.80;86.90
31729;DHT22;18309;43.658;1.312;2023-03-02T00:41:13;4.80;87.10
31729;DHT22;18309;43.658;1.312;2023-03-02T00:43:39;4.80;87.30
31729;DHT22;18309;43.658;1.312;2023-03-02T00:46:13;4.80;87.40
31729;DHT22;18309;43.658;1.312;2023-03-02T00:48:39;4.80;87.40
31729;DHT22;18309;43.658;1.312;2023-03-02T00:51:05;4.80;87.40
31729;DHT22;18309;43.658;1.312;2023-03-02T00:53:32;4.80;87.30
31729;DHT22;18309;43.658;1.312;2023-03-02T00:55:58;4.80;87.30
31729;DHT22;18309;43.658;1.312;2023-03-02T00:58:26;4.80;87.40
31729;DHT22;18309;43.658;1.312;2023-03-02T01:00:52;4.80;87.30
31729;DHT22;18309;43.658;1.312;2023-03-02T01:03:17;4.80;87.40
31729;DHT22;18309;43.658;1.312;2023-03-02T01:05:43;4.80;87.60
31729;DHT22;18309;43.658;1.312;2023-03-02T01:08:09;4.80;87.70
31729;DHT22;18309;43.658;1.312;2023-03-02T01:10:35;4.80;87.90
31729;DHT22;18309;43.658;1.312;2023-03-02T01:13:02;4.70;88.20
31729;DHT22;18309;43.658;1.312;2023-03-02T01:15:27;4.70;88.40
31729;DHT22;18309;43.658;1.312;2023-03-02T01:17:53;4.80;88.50
31729;DHT22;18309;43.658;1.312;2023-03-02T01:20:19;4.80;88.60
31729;DHT22;18309;43.658;1.312;2023-03-02T01:22:45;4.80;88.60
31729;DHT22;18309;43.658;1.312;2023-03-02T01:25:11;4.80;88.70
31729;DHT22;18309;43.658;1.312;2023-03-02T01:27:40;4.80;88.70
31729;DHT22;18309;43.658;1.312;2023-03-02T01:30:06;4.80;88.90
31729;DHT22;18309;43.658;1.312;2023-03-02T01:32:32;4.80;89.10
31729;DHT22;18309;43.658;1.312;2023-03-02T01:34:57;4.80;89.00
31729;DHT22;18309;43.658;1.312;2023-03-02T01:37:23;4.80;89.10
31729;DHT22;18309;43.658;1.312;2023-03-02T01:39:49;4.80;89.10
31729;DHT22;18309;43.658;1.312;2023-03-02T01:42:15;4.80;89.40
31729;DHT22;18309;43.658;1.312;2023-03-02T01:44:48;4.80;89.50
31729;DHT22;18309;43.658;1.312;2023-03-02T01:49:49;4.70;89.60
31729;DHT22;18309;43.658;1.312;2023-03-02T01:52:15;4.70;89.70
31729;DHT22;18309;43.658;1.312;2023-03-02T01:54:42;4.70;89.90
31729;DHT22;18309;43.658;1.312;2023-03-02T01:57:14;4.70;90.00
31729;DHT22;18309;43.658;1.312;2023-03-02T01:59:41;4.70;90.00
31729;DHT22;18309;43.658;1.312;2023-03-02T02:02:08;4.70;90.00
31729;DHT22;18309;43.658;1.312;2023-03-02T02:04:37;4.70;90.40
31729;DHT22;18309;43.658;1.312;2023-03-02T02:07:06;4.80;90.10
31729;DHT22;18309;43.658;1.312;2023-03-02T02:09:42;4.80;90.10
31729;DHT22;18309;43.658;1.312;2023-03-02T02:12:13;4.70;90.00
31729;DHT22;18309;43.658;1.312;2023-03-02T02:14:39;4.80;90.00
31729;DHT22;18309;43.658;1.312;2023-03-02T02:17:05;4.80;90.00
31729;DHT22;18309;43.658;1.312;2023-03-02T02:22:14;4.80;90.10
31729;DHT22;18309;43.658;1.312;2023-03-02T02:24:45;4.80;90.20
31729;DHT22;18309;43.658;1.312;2023-03-02T02:27:12;4.80;90.20
31729;DHT22;18309;43.658;1.312;2023-03-02T02:29:46;4.80;90.30
31729;DHT22;18309;43.658;1.312;2023-03-02T02:37:37;4.80;90.70
31729;DHT22;18309;43.658;1.312;2023-03-02T02:40:05;4.80;90.40
31729;DHT22;18309;43.658;1.312;2023-03-02T02:42:39;4.80;90.50
31729;DHT22;18309;43.658;1.312;2023-03-02T02:45:09;4.80;90.50
31729;DHT22;18309;43.658;1.312;2023-03-02T02:47:40;4.80;90.50
31729;DHT22;18309;43.658;1.312;2023-03-02T02:50:08;4.80;90.50
31729;DHT22;18309;43.658;1.312;2023-03-02T02:52:37;4.70;90.60
31729;DHT22;18309;43.658;1.312;2023-03-02T02:55:05;4.70;90.70
31729;DHT22;18309;43.658;1.312;2023-03-02T02:57:31;4.70;90.60
31729;DHT22;18309;43.658;1.312;2023-03-02T03:00:00;4.70;90.60
31729;DHT22;18309;43.658;1.312;2023-03-02T03:02:28;4.80;90.60
31729;DHT22;18309;43.658;1.312;2023-03-02T03:04:55;4.80;90.50
31729;DHT22;18309;43.658;1.312;2023-03-02T03:07:31;4.80;90.50
31729;DHT22;18309;43.658;1.312;2023-03-02T03:12:41;4.90;90.50
31729;DHT22;18309;43.658;1.312;2023-03-02T03:15:08;4.90;90.50
31729;DHT22;18309;43.658;1.312;2023-03-02T03:17:34;4.90;90.50
31729;DHT22;18309;43.658;1.312;2023-03-02T03:20:00;4.80;90.40
31729;DHT22;18309;43.658;1.312;2023-03-02T03:22:35;4.90;90.40
31729;DHT22;18309;43.658;1.312;2023-03-02T03:25:01;4.90;90.30
31729;DHT22;18309;43.658;1.312;2023-03-02T03:27:26;4.90;90.30
31729;DHT22;18309;43.658;1.312;2023-03-02T03:29:52;4.90;90.30
31729;DHT22;18309;43.658;1.312;2023-03-02T03:32:19;4.90;90.30
31729;DHT22;18309;43.658;1.312;2023-03-02T03:34:45;4.90;90.30
31729;DHT22;18309;43.658;1.312;2023-03-02T03:37:14;4.90;90.30
31729;DHT22;18309;43.658;1.312;2023-03-02T03:39:40;4.80;90.30
31729;DHT22;18309;43.658;1.312;2023-03-02T03:42:06;4.90;90.30
31729;DHT22;18309;43.658;1.312;2023-03-02T03:44:32;4.80;90.30
31729;DHT22;18309;43.658;1.312;2023-03-02T03:46:58;4.80;90.40
31729;DHT22;18309;43.658;1.312;2023-03-02T03:49:25;4.80;90.40
31729;DHT22;18309;43.658;1.312;2023-03-02T03:51:51;4.80;90.30
31729;DHT22;18309;43.658;1.312;2023-03-02T03:54:17;4.80;90.40
31729;DHT22;18309;43.658;1.312;2023-03-02T03:56:45;4.80;90.30
31729;DHT22;18309;43.658;1.312;2023-03-02T03:59:14;4.80;90.20
31729;DHT22;18309;43.658;1.312;2023-03-02T04:01:41;4.70;90.20
31729;DHT22;18309;43.658;1.312;2023-03-02T04:04:13;4.80;90.20
31729;DHT22;18309;43.658;1.312;2023-03-02T04:06:39;4.80;90.20
31729;DHT22;18309;43.658;1.312;2023-03-02T04:09:05;4.80;90.20
31729;DHT22;18309;43.658;1.312;2023-03-02T04:11:37;4.80;90.20
31729;DHT22;18309;43.658;1.312;2023-03-02T04:14:04;4.70;90.20
31729;DHT22;18309;43.658;1.312;2023-03-02T04:16:30;4.70;90.30
31729;DHT22;18309;43.658;1.312;2023-03-02T04:18:57;4.70;90.30
31729;DHT22;18309;43.658;1.312;2023-03-02T04:21:24;4.70;90.30
31729;DHT22;18309;43.658;1.312;2023-03-02T04:23:50;4.80;90.30
31729;DHT22;18309;43.658;1.312;2023-03-02T04:26:16;4.70;90.20
31729;DHT22;18309;43.658;1.312;2023-03-02T04:28:41;4.70;90.20
31729;DHT22;18309;43.658;1.312;2023-03-02T04:31:07;4.70;90.50
31729;DHT22;18309;43.658;1.312;2023-03-02T04:33:33;4.70;90.10
31729;DHT22;18309;43.658;1.312;2023-03-02T04:35:58;4.70;90.10
31729;DHT22;18309;43.658;1.312;2023-03-02T04:38:24;4.70;90.10
31729;DHT22;18309;43.658;1.312;2023-03-02T04:40:57;4.70;90.10
31729;DHT22;18309;43.658;1.312;2023-03-02T04:43:24;4.70;90.10
31729;DHT22;18309;43.658;1.312;2023-03-02T04:45:51;4.70;90.10
31729;DHT22;18309;43.658;1.312;2023-03-02T04:48:17;4.70;90.10
31729;DHT22;18309;43.658;1.312;2023-03-02T04:50:42;4.80;90.00
31729;DHT22;18309;43.658;1.312;2023-03-02T04:53:08;4.70;90.00
31729;DHT22;18309;43.658;1.312;2023-03-02T04:55:35;4.70;90.10
31729;DHT22;18309;43.658;1.312;2023-03-02T04:58:01;4.70;90.00
31729;DHT22;18309;43.658;1.312;2023-03-02T05:00:27;4.70;90.00
31729;DHT22;18309;43.658;1.312;2023-03-02T05:02:53;4.70;90.10
31729;DHT22;18309;43.658;1.312;2023-03-02T05:05:22;4.70;90.00
31729;DHT22;18309;43.658;1.312;2023-03-02T05:07:48;4.70;90.00
31729;DHT22;18309;43.658;1.312;2023-03-02T05:10:15;4.70;90.10
31729;DHT22;18309;43.658;1.312;2023-03-02T05:12:41;4.70;90.20
31729;DHT22;18309;43.658;1.312;2023-03-02T05:15:26;4.70;90.20
31729;DHT22;18309;43.658;1.312;2023-03-02T05:17:52;4.70;90.20
31729;DHT22;18309;43.658;1.312;2023-03-02T05:20:18;4.70;90.10
31729;DHT22;18309;43.658;1.312;2023-03-02T05:22:44;4.70;90.10
31729;DHT22;18309;43.658;1.312;2023-03-02T05:25:10;4.70;90.20
31729;DHT22;18309;43.658;1.312;2023-03-02T05:27:36;4.70;90.30
31729;DHT22;18309;43.658;1.312;2023-03-02T05:30:04;4.70;90.20
31729;DHT22;18309;43.658;1.312;2023-03-02T05:32:30;4.70;90.20
31729;DHT22;18309;43.658;1.312;2023-03-02T05:34:56;4.70;90.20
31729;DHT22;18309;43.658;1.312;2023-03-02T05:37:22;4.70;90.20
31729;DHT22;18309;43.658;1.312;2023-03-02T05:39:47;4.70;90.20
31729;DHT22;18309;43.658;1.312;2023-03-02T05:42:13;4.70;90.10
31729;DHT22;18309;43.658;1.312;2023-03-02T05:44:39;4.70;90.20
31729;DHT22;18309;43.658;1.312;2023-03-02T05:47:04;4.70;90.10
31729;DHT22;18309;43.658;1.312;2023-03-02T05:49:30;4.70;90.10
31729;DHT22;18309;43.658;1.312;2023-03-02T05:51:56;4.70;90.10
31729;DHT22;18309;43.658;1.312;2023-03-02T05:54:21;4.70;90.10
31729;DHT22;18309;43.658;1.312;2023-03-02T05:56:47;4.70;90.10
31729;DHT22;18309;43.658;1.312;2023-03-02T05:59:13;4.70;90.00
31729;DHT22;18309;43.658;1.312;2023-03-02T06:01:38;4.70;90.10
31729;DHT22;18309;43.658;1.312;2023-03-02T06:04:04;4.70;90.00
31729;DHT22;18309;43.658;1.312;2023-03-02T06:06:30;4.70;90.00
31729;DHT22;18309;43.658;1.312;2023-03-02T06:08:56;4.70;90.00
31729;DHT22;18309;43.658;1.312;2023-03-02T06:11:21;4.70;90.00
31729;DHT22;18309;43.658;1.312;2023-03-02T06:13:47;4.70;90.00
31729;DHT22;18309;43.658;1.312;2023-03-02T06:16:13;4.70;90.00
31729;DHT22;18309;43.658;1.312;2023-03-02T06:18:38;4.70;90.00
31729;DHT22;18309;43.658;1.312;2023-03-02T06:21:04;4.70;90.00
31729;DHT22;18309;43.658;1.312;2023-03-02T06:23:30;4.70;90.00
31729;DHT22;18309;43.658;1.312;2023-03-02T06:25:56;4.70;90.00
31729;DHT22;18309;43.658;1.312;2023-03-02T06:28:23;4.70;90.00
31729;DHT22;18309;43.658;1.312;2023-03-02T06:30:49;4.70;90.00
31729;DHT22;18309;43.658;1.312;2023-03-02T06:33:17;4.70;89.90
31729;DHT22;18309;43.658;1.312;2023-03-02T06:35:44;4.70;89.80
31729;DHT22;18309;43.658;1.312;2023-03-02T06:38:10;4.70;89.90
31729;DHT22;18309;43.658;1.312;2023-03-02T06:40:36;4.70;89.80
31729;DHT22;18309;43.658;1.312;2023-03-02T06:43:01;4.70;90.20
31729;DHT22;18309;43.658;1.312;2023-03-02T06:45:27;4.70;90.30
31729;DHT22;18309;43.658;1.312;2023-03-02T06:47:54;4.70;89.80
31729;DHT22;18309;43.658;1.312;2023-03-02T06:50:19;4.70;89.70
31729;DHT22;18309;43.658;1.312;2023-03-02T06:52:45;4.70;89.70
31729;DHT22;18309;43.658;1.312;2023-03-02T06:55:11;4.70;89.80
31729;DHT22;18309;43.658;1.312;2023-03-02T06:57:37;4.70;89.80
31729;DHT22;18309;43.658;1.312;2023-03-02T07:00:05;4.70;89.60
31729;DHT22;18309;43.658;1.312;2023-03-02T07:02:37;4.70;89.60
31729;DHT22;18309;43.658;1.312;2023-03-02T07:05:04;4.70;89.40
31729;DHT22;18309;43.658;1.312;2023-03-02T07:07:30;4.70;89.50
31729;DHT22;18309;43.658;1.312;2023-03-02T07:09:55;4.70;89.50
31729;DHT22;18309;43.658;1.312;2023-03-02T07:12:21;4.70;89.60
31729;DHT22;18309;43.658;1.312;2023-03-02T07:14:46;4.70;89.60
31729;DHT22;18309;43.658;1.312;2023-03-02T07:17:12;4.80;89.70
31729;DHT22;18309;43.658;1.312;2023-03-02T07:19:38;4.70;89.60
31729;DHT22;18309;43.658;1.312;2023-03-02T07:22:04;4.80;89.70
31729;DHT22;18309;43.658;1.312;2023-03-02T07:24:30;4.80;89.60
31729;DHT22;18309;43.658;1.312;2023-03-02T07:26:57;4.80;89.70
31729;DHT22;18309;43.658;1.312;2023-03-02T07:29:23;4.80;89.50
31729;DHT22;18309;43.658;1.312;2023-03-02T07:31:49;4.80;89.50
31729;DHT22;18309;43.658;1.312;2023-03-02T07:34:22;4.80;89.40
31729;DHT22;18309;43.658;1.312;2023-03-02T07:36:48;4.80;89.40
31729;DHT22;18309;43.658;1.312;2023-03-02T07:39:13;4.80;89.40
31729;DHT22;18309;43.658;1.312;2023-03-02T07:41:39;4.50;90.30
31729;DHT22;18309;43.658;1.312;2023-03-02T07:44:05;4.00;90.90
31729;DHT22;18309;43.658;1.312;2023-03-02T07:46:30;3.60;91.60
31729;DHT22;18309;43.658;1.312;2023-03-02T07:48:56;3.40;92.00
31729;DHT22;18309;43.658;1.312;2023-03-02T07:51:23;3.30;92.30
31729;DHT22;18309;43.658;1.312;2023-03-02T07:53:49;3.30;92.40
31729;DHT22;18309;43.658;1.312;2023-03-02T07:56:15;3.20;92.50
31729;DHT22;18309;43.658;1.312;2023-03-02T07:58:40;3.20;92.50
31729;DHT22;18309;43.658;1.312;2023-03-02T08:01:06;3.10;92.60
31729;DHT22;18309;43.658;1.312;2023-03-02T08:03:33;3.10;92.70
31729;DHT22;18309;43.658;1.312;2023-03-02T08:06:06;3.00;92.60
31729;DHT22;18309;43.658;1.312;2023-03-02T08:08:32;3.00;92.80
31729;DHT22;18309;43.658;1.312;2023-03-02T08:11:06;3.00;92.90
31729;DHT22;18309;43.658;1.312;2023-03-02T08:13:32;3.00;92.90
31729;DHT22;18309;43.658;1.312;2023-03-02T08:16:02;3.00;93.00
31729;DHT22;18309;43.658;1.312;2023-03-02T08:18:28;3.00;92.90
31729;DHT22;18309;43.658;1.312;2023-03-02T08:20:54;3.10;92.70
31729;DHT22;18309;43.658;1.312;2023-03-02T08:23:20;3.10;92.80
31729;DHT22;18309;43.658;1.312;2023-03-02T08:25:47;3.10;92.70
31729;DHT22;18309;43.658;1.312;2023-03-02T08:28:13;3.10;92.60
31729;DHT22;18309;43.658;1.312;2023-03-02T08:30:38;3.10;92.50
31729;DHT22;18309;43.658;1.312;2023-03-02T08:33:04;3.20;92.50
31729;DHT22;18309;43.658;1.312;2023-03-02T08:35:30;3.20;92.50
31729;DHT22;18309;43.658;1.312;2023-03-02T08:37:55;3.20;92.40
31729;DHT22;18309;43.658;1.312;2023-03-02T08:40:21;3.30;92.40
31729;DHT22;18309;43.658;1.312;2023-03-02T08:42:47;3.30;92.30
31729;DHT22;18309;43.658;1.312;2023-03-02T08:45:14;3.30;92.40
31729;DHT22;18309;43.658;1.312;2023-03-02T08:47:39;3.40;92.30
31729;DHT22;18309;43.658;1.312;2023-03-02T08:50:05;3.40;92.20
31729;DHT22;18309;43.658;1.312;2023-03-02T08:52:33;3.40;92.10
31729;DHT22;18309;43.658;1.312;2023-03-02T08:54:59;3.50;92.30
31729;DHT22;18309;43.658;1.312;2023-03-02T08:57:25;3.50;92.00
31729;DHT22;18309;43.658;1.312;2023-03-02T08:59:51;3.50;92.00
31729;DHT22;18309;43.658;1.312;2023-03-02T09:02:17;3.50;91.90
31729;DHT22;18309;43.658;1.312;2023-03-02T09:04:43;3.50;92.00
31729;DHT22;18309;43.658;1.312;2023-03-02T09:07:09;3.50;92.10
31729;DHT22;18309;43.658;1.312;2023-03-02T09:09:34;3.60;92.10
31729;DHT22;18309;43.658;1.312;2023-03-02T09:12:00;3.70;92.10
31729;DHT22;18309;43.658;1.312;2023-03-02T09:14:26;3.70;91.90
31729;DHT22;18309;43.658;1.312;2023-03-02T09:16:52;3.70;91.90
31729;DHT22;18309;43.658;1.312;2023-03-02T09:19:18;3.80;91.90
31729;DHT22;18309;43.658;1.312;2023-03-02T09:21:43;3.70;92.00
31729;DHT22;18309;43.658;1.312;2023-03-02T09:24:09;3.80;92.00
31729;DHT22;18309;43.658;1.312;2023-03-02T09:26:35;3.90;91.90
31729;DHT22;18309;43.658;1.312;2023-03-02T09:29:02;4.00;91.70
31729;DHT22;18309;43.658;1.312;2023-03-02T09:31:28;4.00;91.70
31729;DHT22;18309;43.658;1.312;2023-03-02T09:33:53;4.10;91.70
31729;DHT22;18309;43.658;1.312;2023-03-02T09:36:22;4.20;91.70
31729;DHT22;18309;43.658;1.312;2023-03-02T09:38:49;4.30;91.70
31729;DHT22;18309;43.658;1.312;2023-03-02T09:51:35;4.60;91.40
31729;DHT22;18309;43.658;1.312;2023-03-02T09:54:09;4.60;91.20
31729;DHT22;18309;43.658;1.312;2023-03-02T09:57:13;4.60;91.40
31729;DHT22;18309;43.658;1.312;2023-03-02T09:59:40;4.70;91.40
31729;DHT22;18309;43.658;1.312;2023-03-02T10:02:36;4.70;91.40
31729;DHT22;18309;43.658;1.312;2023-03-02T10:05:10;4.80;91.50
31729;DHT22;18309;43.658;1.312;2023-03-02T10:07:39;4.90;91.10
31729;DHT22;18309;43.658;1.312;2023-03-02T10:15:25;4.80;91.00
31729;DHT22;18309;43.658;1.312;2023-03-02T10:18:20;4.90;91.10
31729;DHT22;18309;43.658;1.312;2023-03-02T10:21:17;4.90;91.00
31729;DHT22;18309;43.658;1.312;2023-03-02T10:23:55;4.90;91.20
31729;DHT22;18309;43.658;1.312;2023-03-02T10:26:45;4.90;91.40
31729;DHT22;18309;43.658;1.312;2023-03-02T10:32:44;5.00;91.30
31729;DHT22;18309;43.658;1.312;2023-03-02T10:34:45;5.10;91.50
31729;DHT22;18309;43.658;1.312;2023-03-02T10:37:18;5.10;91.30
31729;DHT22;18309;43.658;1.312;2023-03-02T10:39:46;5.10;91.30
31729;DHT22;18309;43.658;1.312;2023-03-02T10:42:19;5.20;91.30
31729;DHT22;18309;43.658;1.312;2023-03-02T10:44:51;5.10;91.20
31729;DHT22;18309;43.658;1.312;2023-03-02T10:47:20;5.10;91.40
31729;DHT22;18309;43.658;1.312;2023-03-02T10:49:47;5.20;91.30
31729;DHT22;18309;43.658;1.312;2023-03-02T10:52:16;5.20;91.30
31729;DHT22;18309;43.658;1.312;2023-03-02T10:54:42;5.30;91.30
31729;DHT22;18309;43.658;1.312;2023-03-02T10:59:58;5.30;91.40
31729;DHT22;18309;43.658;1.312;2023-03-02T11:02:25;5.40;91.40
31729;DHT22;18309;43.658;1.312;2023-03-02T11:04:57;5.40;91.40
31729;DHT22;18309;43.658;1.312;2023-03-02T11:07:25;5.50;91.50
31729;DHT22;18309;43.658;1.312;2023-03-02T11:09:59;5.50;91.10
31729;DHT22;18309;43.658;1.312;2023-03-02T11:12:26;5.50;91.20
31729;DHT22;18309;43.658;1.312;2023-03-02T11:15:47;5.60;91.30
31729;DHT22;18309;43.658;1.312;2023-03-02T11:21:53;5.70;90.80
31729;DHT22;18309;43.658;1.312;2023-03-02T11:26:59;5.80;90.90
31729;DHT22;18309;43.658;1.312;2023-03-02T11:29:58;5.90;91.10
31729;DHT22;18309;43.658;1.312;2023-03-02T11:38:22;6.00;90.60
31729;DHT22;18309;43.658;1.312;2023-03-02T11:40:52;6.10;90.70
31729;DHT22;18309;43.658;1.312;2023-03-02T11:43:19;6.10;90.30
31729;DHT22;18309;43.658;1.312;2023-03-02T11:45:57;6.20;90.20
31729;DHT22;18309;43.658;1.312;2023-03-02T11:48:32;6.20;89.90
31729;DHT22;18309;43.658;1.312;2023-03-02T11:52:01;6.20;90.00
31729;DHT22;18309;43.658;1.312;2023-03-02T11:56:55;6.30;89.60
31729;DHT22;18309;43.658;1.312;2023-03-02T11:59:21;6.30;89.80
31729;DHT22;18309;43.658;1.312;2023-03-02T12:01:51;6.40;89.90
31729;DHT22;18309;43.658;1.312;2023-03-02T12:04:25;6.50;89.60
31729;DHT22;18309;43.658;1.312;2023-03-02T12:06:52;6.50;89.70
31729;DHT22;18309;43.658;1.312;2023-03-02T12:09:25;6.50;89.10
31729;DHT22;18309;43.658;1.312;2023-03-02T12:13:01;6.50;87.30
31729;DHT22;18309;43.658;1.312;2023-03-02T12:14:54;6.40;87.60
31729;DHT22;18309;43.658;1.312;2023-03-02T12:17:30;6.50;87.80
31729;DHT22;18309;43.658;1.312;2023-03-02T12:20:07;6.50;87.50
31729;DHT22;18309;43.658;1.312;2023-03-02T12:22:34;6.60;87.60
31729;DHT22;18309;43.658;1.312;2023-03-02T12:25:21;6.70;87.20
31729;DHT22;18309;43.658;1.312;2023-03-02T12:27:51;6.70;87.20
31729;DHT22;18309;43.658;1.312;2023-03-02T12:33:18;6.70;86.90
31729;DHT22;18309;43.658;1.312;2023-03-02T12:35:46;6.70;86.50
31729;DHT22;18309;43.658;1.312;2023-03-02T12:38:25;6.70;86.70
31729;DHT22;18309;43.658;1.312;2023-03-02T12:41:27;6.70;87.00
31729;DHT22;18309;43.658;1.312;2023-03-02T12:44:28;6.80;86.70
31729;DHT22;18309;43.658;1.312;2023-03-02T12:46:58;6.80;86.70
31729;DHT22;18309;43.658;1.312;2023-03-02T12:49:43;6.90;86.70
31729;DHT22;18309;43.658;1.312;2023-03-02T12:52:35;6.90;85.80
31729;DHT22;18309;43.658;1.312;2023-03-02T12:55:13;6.90;85.70
31729;DHT22;18309;43.658;1.312;2023-03-02T12:57:51;6.80;85.70
31729;DHT22;18309;43.658;1.312;2023-03-02T13:00:23;6.80;85.80
31729;DHT22;18309;43.658;1.312;2023-03-02T13:02:52;6.90;86.20
31729;DHT22;18309;43.658;1.312;2023-03-02T13:05:27;6.90;86.70
31729;DHT22;18309;43.658;1.312;2023-03-02T13:08:10;6.90;86.10
31729;DHT22;18309;43.658;1.312;2023-03-02T13:10:49;6.90;88.00
31729;DHT22;18309;43.658;1.312;2023-03-02T13:13:20;6.90;86.70
31729;DHT22;18309;43.658;1.312;2023-03-02T13:15:52;6.90;85.90
31729;DHT22;18309;43.658;1.312;2023-03-02T13:18:20;6.80;85.60
31729;DHT22;18309;43.658;1.312;2023-03-02T13:20:48;6.80;86.20
31729;DHT22;18309;43.658;1.312;2023-03-02T13:23:15;6.90;85.70
31729;DHT22;18309;43.658;1.312;2023-03-02T13:25:49;6.90;86.60
31729;DHT22;18309;43.658;1.312;2023-03-02T13:28:34;6.90;86.40
31729;DHT22;18309;43.658;1.312;2023-03-02T13:31:14;6.90;85.80
31729;DHT22;18309;43.658;1.312;2023-03-02T13:33:44;6.90;86.50
31729;DHT22;18309;43.658;1.312;2023-03-02T13:36:36;6.90;86.10
31729;DHT22;18309;43.658;1.312;2023-03-02T13:39:04;6.80;86.20
31729;DHT22;18309;43.658;1.312;2023-03-02T13:41:36;6.90;87.00
31729;DHT22;18309;43.658;1.312;2023-03-02T13:44:18;6.90;86.90
31729;DHT22;18309;43.658;1.312;2023-03-02T13:46:44;6.80;86.80
31729;DHT22;18309;43.658;1.312;2023-03-02T13:49:11;6.80;87.20
31729;DHT22;18309;43.658;1.312;2023-03-02T13:51:45;6.80;87.50
31729;DHT22;18309;43.658;1.312;2023-03-02T13:54:19;6.80;86.40
31729;DHT22;18309;43.658;1.312;2023-03-02T13:56:47;6.70;86.60
31729;DHT22;18309;43.658;1.312;2023-03-02T13:59:15;6.70;86.60
31729;DHT22;18309;43.658;1.312;2023-03-02T14:01:42;6.80;86.80
31729;DHT22;18309;43.658;1.312;2023-03-02T14:04:12;6.70;86.50
31729;DHT22;18309;43.658;1.312;2023-03-02T14:06:38;6.70;86.60
31729;DHT22;18309;43.658;1.312;2023-03-02T14:09:03;6.60;86.00
31729;DHT22;18309;43.658;1.312;2023-03-02T14:11:33;6.60;86.40
31729;DHT22;18309;43.658;1.312;2023-03-02T14:14:00;6.70;87.00
31729;DHT22;18309;43.658;1.312;2023-03-02T14:16:27;6.70;87.40
31729;DHT22;18309;43.658;1.312;2023-03-02T14:18:53;6.70;87.40
31729;DHT22;18309;43.658;1.312;2023-03-02T14:21:22;6.70;87.20
31729;DHT22;18309;43.658;1.312;2023-03-02T14:23:49;6.70;87.40
31729;DHT22;18309;43.658;1.312;2023-03-02T14:26:42;6.60;87.20
31729;DHT22;18309;43.658;1.312;2023-03-02T14:29:14;6.60;86.90
31729;DHT22;18309;43.658;1.312;2023-03-02T14:31:41;6.60;87.40
31729;DHT22;18309;43.658;1.312;2023-03-02T14:34:11;6.60;87.10
31729;DHT22;18309;43.658;1.312;2023-03-02T14:36:38;6.60;87.10
31729;DHT22;18309;43.658;1.312;2023-03-02T14:39:08;6.60;87.40
31729;DHT22;18309;43.658;1.312;2023-03-02T14:41:36;6.60;86.40
31729;DHT22;18309;43.658;1.312;2023-03-02T14:44:03;6.70;86.80
31729;DHT22;18309;43.658;1.312;2023-03-02T14:46:29;6.70;87.10
31729;DHT22;18309;43.658;1.312;2023-03-02T14:48:54;6.70;86.50
31729;DHT22;18309;43.658;1.312;2023-03-02T14:51:24;6.70;86.60
31729;DHT22;18309;43.658;1.312;2023-03-02T14:53:53;6.70;86.40
31729;DHT22;18309;43.658;1.312;2023-03-02T14:56:20;6.70;86.00
31729;DHT22;18309;43.658;1.312;2023-03-02T14:58:48;6.70;86.50
31729;DHT22;18309;43.658;1.312;2023-03-02T15:01:15;6.60;86.60
31729;DHT22;18309;43.658;1.312;2023-03-02T15:03:41;6.60;87.20
31729;DHT22;18309;43.658;1.312;2023-03-02T15:06:31;6.60;86.90
31729;DHT22;18309;43.658;1.312;2023-03-02T15:08:59;6.70;86.70
31729;DHT22;18309;43.658;1.312;2023-03-02T15:11:26;6.60;86.90
31729;DHT22;18309;43.658;1.312;2023-03-02T15:13:52;6.70;87.40
31729;DHT22;18309;43.658;1.312;2023-03-02T15:16:19;6.70;87.20
31729;DHT22;18309;43.658;1.312;2023-03-02T15:18:47;6.70;86.50
31729;DHT22;18309;43.658;1.312;2023-03-02T15:21:19;6.60;89.20
31729;DHT22;18309;43.658;1.312;2023-03-02T15:23:45;6.60;90.20
31729;DHT22;18309;43.658;1.312;2023-03-02T15:26:12;6.70;90.60
31729;DHT22;18309;43.658;1.312;2023-03-02T15:28:38;6.70;90.70
31729;DHT22;18309;43.658;1.312;2023-03-02T15:31:09;6.70;90.90
31729;DHT22;18309;43.658;1.312;2023-03-02T15:33:35;6.70;90.90
31729;DHT22;18309;43.658;1.312;2023-03-02T15:36:01;6.60;91.00
31729;DHT22;18309;43.658;1.312;2023-03-02T15:38:26;6.60;91.00
31729;DHT22;18309;43.658;1.312;2023-03-02T15:40:52;6.60;91.10
31729;DHT22;18309;43.658;1.312;2023-03-02T15:43:18;6.70;91.10
31729;DHT22;18309;43.658;1.312;2023-03-02T15:45:44;6.70;91.10
31729;DHT22;18309;43.658;1.312;2023-03-02T15:48:13;6.70;90.90
31729;DHT22;18309;43.658;1.312;2023-03-02T15:50:39;6.60;90.70
31729;DHT22;18309;43.658;1.312;2023-03-02T15:53:05;6.70;90.80
31729;DHT22;18309;43.658;1.312;2023-03-02T15:55:30;6.70;90.90
31729;DHT22;18309;43.658;1.312;2023-03-02T15:57:56;6.60;90.70
31729;DHT22;18309;43.658;1.312;2023-03-02T16:00:24;6.70;90.80
31729;DHT22;18309;43.658;1.312;2023-03-02T16:02:50;6.70;90.80
31729;DHT22;18309;43.658;1.312;2023-03-02T16:05:16;6.70;90.00
31729;DHT22;18309;43.658;1.312;2023-03-02T16:07:42;6.70;88.50
31729;DHT22;18309;43.658;1.312;2023-03-02T16:10:08;6.70;88.20
31729;DHT22;18309;43.658;1.312;2023-03-02T16:12:40;6.70;88.20
31729;DHT22;18309;43.658;1.312;2023-03-02T16:15:07;6.70;88.60
31729;DHT22;18309;43.658;1.312;2023-03-02T16:17:32;6.70;87.60
31729;DHT22;18309;43.658;1.312;2023-03-02T16:19:58;6.60;87.80
31729;DHT22;18309;43.658;1.312;2023-03-02T16:22:24;6.60;87.80
31729;DHT22;18309;43.658;1.312;2023-03-02T16:24:49;6.60;87.50
31729;DHT22;18309;43.658;1.312;2023-03-02T16:27:15;6.50;86.50
31729;DHT22;18309;43.658;1.312;2023-03-02T16:29:41;6.50;86.80
31729;DHT22;18309;43.658;1.312;2023-03-02T16:32:08;6.50;87.00
31729;DHT22;18309;43.658;1.312;2023-03-02T16:34:34;6.50;86.80
31729;DHT22;18309;43.658;1.312;2023-03-02T16:36:59;6.50;87.00
31729;DHT22;18309;43.658;1.312;2023-03-02T16:39:25;6.50;87.00
31729;DHT22;18309;43.658;1.312;2023-03-02T16:41:51;6.50;87.20
31729;DHT22;18309;43.658;1.312;2023-03-02T16:44:17;6.50;87.70
31729;DHT22;18309;43.658;1.312;2023-03-02T16:46:42;6.50;87.60
31729;DHT22;18309;43.658;1.312;2023-03-02T16:49:09;6.50;87.60